Time;durP1;ratioP1;P1;durP2;ratioP2;P2;SDS_P1;SDS_P2;PMS_P1;PMS_P2;Temp;Humidity;BMP_temperature;BMP_pressure;BME280_temperature;BME280_humidity;BME280_pressure;Samples;Min_cycle;Max_cycle;Signal;HPM_P1;HPM_P2
2023/04/09 00:00:44;;;;;;;3.33;2.00;;;26.20;99.90;;;;;;5043534;28;20421;-78
2023/04/09 00:03:10;;;;;;;10.30;2.47;;;26.10;99.90;;;;;;5043329;28;20068;-79
2023/04/09 00:05:40;;;;;;;3.95;2.17;;;26.30;99.90;;;;;;5043879;28;20545;-77
2023/04/09 00:08:07;;;;;;;8.73;2.78;;;26.00;99.90;;;;;;5043054;28;20032;-77
2023/04/09 00:10:34;;;;;;;4.05;2.47;;;26.10;99.90;;;;;;5043427;28;20009;-76
2023/04/09 00:13:00;;;;;;;7.43;2.38;;;26.10;99.90;;;;;;5043597;28;20506;-77
2023/04/09 00:15:27;;;;;;;5.80;2.78;;;25.80;99.90;;;;;;5042807;28;20278;-77
2023/04/09 00:17:55;;;;;;;13.48;2.85;;;26.20;99.90;;;;;;5042698;28;20028;-78
2023/04/09 00:20:21;;;;;;;6.00;3.65;;;26.00;99.90;;;;;;5043861;28;20056;-76
2023/04/09 00:22:49;;;;;;;7.00;3.30;;;26.20;99.90;;;;;;5053993;28;20078;-78
2023/04/09 00:25:15;;;;;;;6.47;3.63;;;26.20;99.90;;;;;;5053809;28;20042;-81
2023/04/09 00:27:42;;;;;;;8.10;4.40;;;26.20;99.90;;;;;;5042137;28;20028;-77
2023/04/09 00:30:09;;;;;;;6.07;4.15;;;26.10;99.90;;;;;;5049930;28;20028;-76
2023/04/09 00:32:35;;;;;;;7.80;4.85;;;25.90;99.90;;;;;;5048348;28;20021;-75
2023/04/09 00:35:02;;;;;;;729.65;509.73;;;25.80;99.90;;;;;;5053559;28;20478;-74
2023/04/09 00:37:28;;;;;;;376.85;230.40;;;25.90;99.90;;;;;;5053295;28;20028;-74
2023/04/09 00:39:55;;;;;;;22.30;12.25;;;26.00;99.90;;;;;;5053601;28;20025;-73
2023/04/09 00:42:21;;;;;;;98.57;75.45;;;25.90;99.90;;;;;;5053318;28;20021;-75
2023/04/09 00:44:48;;;;;;;43.85;34.03;;;25.80;99.90;;;;;;5056546;28;20009;-74
2023/04/09 00:47:15;;;;;;;15.30;12.00;;;26.00;99.90;;;;;;5068327;28;20023;-75
2023/04/09 00:49:41;;;;;;;11.02;8.18;;;25.90;99.90;;;;;;5064365;28;20442;-74
2023/04/09 00:52:08;;;;;;;12.05;6.70;;;26.20;99.90;;;;;;5073322;28;20024;-73
2023/04/09 00:54:34;;;;;;;17.75;7.55;;;26.20;99.90;;;;;;5072164;28;20145;-74
2023/04/09 00:57:02;;;;;;;9.40;6.32;;;26.30;99.90;;;;;;5072635;28;20028;-73
2023/04/09 00:59:29;;;;;;;9.93;6.35;;;26.30;99.90;;;;;;5073218;28;20024;-74
2023/04/09 01:01:55;;;;;;;13.70;10.00;;;26.40;99.90;;;;;;5073162;28;20016;-75
2023/04/09 01:04:25;;;;;;;6.60;5.55;;;26.40;99.90;;;;;;5073064;28;20405;-75
2023/04/09 01:07:01;;;;;;;10.23;6.50;;;26.60;99.90;;;;;;5073293;28;20063;-74
2023/04/09 01:09:35;;;;;;;7.97;6.45;;;26.80;99.90;;;;;;5072909;28;20020;-74
2023/04/09 01:12:35;;;;;;;8.68;6.32;;;26.80;99.90;;;;;;5073273;28;20373;-74
2023/04/09 01:15:09;;;;;;;8.85;5.93;;;26.80;99.90;;;;;;5060670;28;20075;-74
2023/04/09 01:17:40;;;;;;;9.60;6.80;;;26.70;99.90;;;;;;5073142;28;20432;-75
2023/04/09 01:20:13;;;;;;;9.35;5.82;;;26.80;99.90;;;;;;5072983;28;20024;-72
2023/04/09 01:22:42;;;;;;;7.05;5.97;;;26.80;99.90;;;;;;5072691;28;20036;-77
2023/04/09 01:25:26;;;;;;;7.55;5.72;;;26.80;99.90;;;;;;5073088;28;20362;-74
2023/04/09 01:28:15;;;;;;;8.88;5.28;;;26.90;99.90;;;;;;5063528;28;20025;-74
2023/04/09 01:30:47;;;;;;;9.48;5.88;;;26.90;99.90;;;;;;5050500;28;20025;-75
2023/04/09 01:33:15;;;;;;;9.25;6.32;;;27.00;99.90;;;;;;5052923;28;20428;-77
2023/04/09 01:35:45;;;;;;;6.53;5.50;;;26.80;99.90;;;;;;5053049;28;20032;-77
2023/04/09 01:38:13;;;;;;;9.13;6.40;;;26.90;99.90;;;;;;5052671;28;20075;-74
2023/04/09 01:40:41;;;;;;;8.60;6.30;;;26.90;99.90;;;;;;5052920;28;20021;-76
2023/04/09 01:43:08;;;;;;;11.88;7.13;;;27.00;99.90;;;;;;5052777;28;20025;-77
2023/04/09 01:45:34;;;;;;;11.15;6.70;;;27.10;99.90;;;;;;5057148;28;20044;-76
2023/04/09 01:48:03;;;;;;;11.30;7.57;;;27.10;99.90;;;;;;5052800;28;20355;-77
2023/04/09 01:50:30;;;;;;;8.57;7.28;;;27.20;99.90;;;;;;5052869;28;20033;-75
2023/04/09 01:52:57;;;;;;;11.60;7.60;;;27.30;99.90;;;;;;5052634;28;20039;-77
2023/04/09 01:55:23;;;;;;;10.45;8.15;;;27.40;99.90;;;;;;5052730;28;20024;-76
2023/04/09 01:57:50;;;;;;;9.75;8.75;;;27.40;99.90;;;;;;5052437;28;20048;-75
2023/04/09 02:00:16;;;;;;;14.90;8.93;;;27.40;99.90;;;;;;5051993;28;20474;-76
2023/04/09 02:03:13;;;;;;;16.77;10.27;;;27.40;99.90;;;;;;5067780;28;20124;-76
2023/04/09 02:05:45;;;;;;;15.00;9.73;;;27.50;99.90;;;;;;5052660;28;20054;-74
2023/04/09 02:08:17;;;;;;;15.23;10.70;;;27.60;99.90;;;;;;5056381;28;20021;-75
2023/04/09 02:10:52;;;;;;;21.13;11.30;;;27.60;99.90;;;;;;5056137;28;20071;-74
2023/04/09 02:13:20;;;;;;;13.18;11.27;;;27.70;99.90;;;;;;5065103;28;20033;-73
2023/04/09 02:15:48;;;;;;;12.27;10.13;;;27.80;99.90;;;;;;5068019;28;20021;-75
2023/04/09 02:18:35;;;;;;;17.95;10.40;;;28.00;99.90;;;;;;5075902;28;20107;-74
2023/04/09 02:21:03;;;;;;;13.25;10.52;;;28.10;99.90;;;;;;5076185;28;20039;-75
2023/04/09 02:23:32;;;;;;;11.63;9.55;;;28.10;99.90;;;;;;5075900;28;20043;-74
2023/04/09 02:25:58;;;;;;;14.18;10.23;;;28.20;99.90;;;;;;5076077;28;20035;-74
2023/04/09 02:28:25;;;;;;;12.85;10.10;;;28.30;99.90;;;;;;5076025;28;20377;-73
2023/04/09 02:30:51;;;;;;;12.95;9.35;;;28.30;99.90;;;;;;5075804;28;20489;-75
2023/04/09 02:33:18;;;;;;;15.18;10.57;;;28.40;99.90;;;;;;5075908;28;20538;-77
2023/04/09 02:35:44;;;;;;;15.38;10.43;;;28.40;99.90;;;;;;5075812;28;20066;-76
2023/04/09 02:38:14;;;;;;;8.80;7.78;;;28.50;99.90;;;;;;5075621;28;20023;-78
2023/04/09 02:40:41;;;;;;;10.82;8.65;;;28.50;99.90;;;;;;5075754;28;20427;-75
2023/04/09 02:43:09;;;;;;;11.93;8.32;;;28.50;99.90;;;;;;5075706;28;20027;-74
2023/04/09 02:45:35;;;;;;;12.65;10.43;;;28.50;99.90;;;;;;5075576;28;20020;-74
2023/04/09 02:48:02;;;;;;;11.20;9.80;;;28.50;99.90;;;;;;5071932;28;20059;-74
2023/04/09 02:50:29;;;;;;;15.88;13.50;;;28.60;99.90;;;;;;5066668;28;20277;-74
2023/04/09 02:52:55;;;;;;;19.13;13.63;;;28.60;99.90;;;;;;5075548;28;20056;-74
2023/04/09 02:55:22;;;;;;;16.15;14.45;;;28.70;99.90;;;;;;5072259;28;20020;-75
2023/04/09 02:57:48;;;;;;;16.98;15.02;;;28.70;99.90;;;;;;5067893;28;20387;-69
2023/04/09 03:00:15;;;;;;;17.58;14.18;;;28.70;99.90;;;;;;5055006;28;20097;-69
2023/04/09 03:02:41;;;;;;;10.95;9.77;;;28.70;99.90;;;;;;5055152;28;20119;-69
2023/04/09 03:05:08;;;;;;;12.15;9.45;;;28.80;99.90;;;;;;5055010;28;20028;-69
2023/04/09 03:07:35;;;;;;;8.07;7.22;;;28.70;99.90;;;;;;5054862;28;20021;-75
2023/04/09 03:10:01;;;;;;;9.05;7.75;;;29.00;99.90;;;;;;5054941;28;20021;-77
2023/04/09 03:12:28;;;;;;;10.75;7.57;;;29.00;99.90;;;;;;5054845;28;20474;-75
2023/04/09 03:14:54;;;;;;;10.70;7.85;;;28.90;99.90;;;;;;5052385;28;20108;-74
2023/04/09 03:17:24;;;;;;;8.80;6.32;;;29.10;99.90;;;;;;5039729;28;20025;-77
2023/04/09 03:19:51;;;;;;;9.05;6.80;;;29.10;99.90;;;;;;5039840;28;20025;-74
2023/04/09 03:22:17;;;;;;;12.15;8.40;;;29.00;99.90;;;;;;5034872;28;20378;-75
2023/04/09 03:24:45;;;;;;;8.50;7.50;;;29.10;99.90;;;;;;5047518;28;20025;-76
2023/04/09 03:27:11;;;;;;;8.32;7.35;;;29.00;99.90;;;;;;5054800;28;20378;-79
2023/04/09 03:29:38;;;;;;;10.07;7.30;;;29.00;99.90;;;;;;5058746;28;20017;-77
2023/04/09 03:32:04;;;;;;;9.40;6.80;;;29.10;99.90;;;;;;5057948;28;20021;-74
2023/04/09 03:34:31;;;;;;;12.10;7.82;;;29.20;99.90;;;;;;5054639;28;20155;-74
2023/04/09 03:36:57;;;;;;;9.77;7.80;;;29.30;99.90;;;;;;5051913;28;20021;-76
2023/04/09 03:39:24;;;;;;;11.75;8.77;;;29.40;99.90;;;;;;5034523;28;20017;-72
2023/04/09 03:41:51;;;;;;;11.65;9.38;;;29.50;99.90;;;;;;5034580;28;20036;-75
2023/04/09 03:44:18;;;;;;;10.85;8.82;;;29.40;99.90;;;;;;5034316;28;20029;-74
2023/04/09 03:46:45;;;;;;;13.75;8.25;;;29.50;99.90;;;;;;5034627;28;20017;-74
2023/04/09 03:49:11;;;;;;;11.35;8.98;;;29.50;99.90;;;;;;5034554;28;20028;-75
2023/04/09 03:51:38;;;;;;;11.07;9.10;;;29.70;99.90;;;;;;5034430;28;20374;-74
2023/04/09 03:54:04;;;;;;;12.02;10.75;;;29.70;99.90;;;;;;5036856;28;20083;-75
2023/04/09 03:56:31;;;;;;;14.35;12.38;;;29.60;99.90;;;;;;5044393;28;20116;-76
2023/04/09 03:58:57;;;;;;;13.68;11.50;;;29.70;99.90;;;;;;5044904;28;20047;-76
2023/04/09 04:01:24;;;;;;;15.63;11.35;;;29.90;99.90;;;;;;5062643;28;20048;-76
2023/04/09 04:03:50;;;;;;;12.18;10.10;;;29.90;99.90;;;;;;5073801;28;20036;-81
2023/04/09 04:06:17;;;;;;;15.80;11.02;;;30.00;99.90;;;;;;5073898;28;20099;-78
2023/04/09 04:08:43;;;;;;;13.63;10.50;;;30.10;99.90;;;;;;5073926;28;20025;-79
2023/04/09 04:11:10;;;;;;;14.25;10.73;;;30.10;99.90;;;;;;5073317;28;20051;-78
2023/04/09 04:13:36;;;;;;;19.10;12.65;;;30.10;99.90;;;;;;5073413;28;20488;-79
2023/04/09 04:16:07;;;;;;;12.45;10.00;;;30.30;99.90;;;;;;5072979;28;20029;-78
2023/04/09 04:18:35;;;;;;;10.13;9.13;;;30.10;99.90;;;;;;5057857;28;20043;-77
2023/04/09 04:21:01;;;;;;;10.68;9.60;;;30.10;99.90;;;;;;5043839;28;20024;-76
2023/04/09 04:23:28;;;;;;;9.63;8.43;;;30.10;99.90;;;;;;5043463;28;20466;-77
2023/04/09 04:25:56;;;;;;;10.85;8.10;;;30.10;99.90;;;;;;5042052;28;20025;-78
2023/04/09 04:28:23;;;;;;;10.13;8.32;;;30.10;99.90;;;;;;5044498;28;20375;-76
2023/04/09 04:30:50;;;;;;;8.77;7.88;;;30.20;99.90;;;;;;5045419;28;20474;-83
2023/04/09 04:33:16;;;;;;;14.27;8.07;;;30.20;99.90;;;;;;5045986;28;20017;-80
2023/04/09 04:35:43;;;;;;;10.85;8.27;;;30.10;99.90;;;;;;5043225;28;20148;-80
2023/04/09 04:38:10;;;;;;;8.98;7.82;;;30.10;99.90;;;;;;5045008;28;20021;-79
2023/04/09 04:40:37;;;;;;;10.73;7.65;;;30.10;99.90;;;;;;5050253;28;20473;-79
2023/04/09 04:43:03;;;;;;;8.90;7.47;;;30.10;99.90;;;;;;5043430;28;20029;-78
2023/04/09 04:45:30;;;;;;;11.40;8.10;;;30.30;99.90;;;;;;5041032;28;20017;-79
2023/04/09 04:47:56;;;;;;;10.57;8.40;;;30.30;99.90;;;;;;5042806;28;20146;-77
2023/04/09 04:50:22;;;;;;;12.02;8.55;;;30.30;99.90;;;;;;5042621;28;20023;-76
2023/04/09 04:52:49;;;;;;;10.75;8.23;;;30.50;99.90;;;;;;5041269;28;20091;-79
2023/04/09 04:55:16;;;;;;;12.05;8.48;;;30.60;99.90;;;;;;5040386;28;20071;-77
2023/04/09 04:57:42;;;;;;;9.23;8.32;;;30.40;99.90;;;;;;5033563;28;20017;-77
2023/04/09 05:00:09;;;;;;;13.13;9.02;;;30.40;99.90;;;;;;5033855;28;20478;-79
2023/04/09 05:02:36;;;;;;;9.93;8.32;;;30.50;99.90;;;;;;5042667;28;20048;-78
2023/04/09 05:05:02;;;;;;;14.55;7.60;;;30.60;99.90;;;;;;5069738;28;20032;-78
2023/04/09 05:07:29;;;;;;;9.43;8.02;;;30.70;99.90;;;;;;5053187;28;20070;-76
2023/04/09 05:09:55;;;;;;;8.52;7.45;;;30.60;99.90;;;;;;5049824;28;20034;-77
2023/04/09 05:12:22;;;;;;;9.40;7.28;;;30.70;99.90;;;;;;5041743;28;20091;-75
2023/04/09 05:14:48;;;;;;;11.70;7.45;;;30.80;99.90;;;;;;5043097;28;20384;-77
2023/04/09 05:17:15;;;;;;;7.80;6.88;;;30.90;99.90;;;;;;5041943;28;20017;-75
2023/04/09 05:19:44;;;;;;;8.68;7.28;;;31.00;99.90;;;;;;5041505;28;20024;-76
2023/04/09 05:22:10;;;;;;;11.13;8.35;;;31.00;99.90;;;;;;5041063;28;20467;-75
2023/04/09 05:24:37;;;;;;;10.15;8.02;;;31.10;99.90;;;;;;5042045;28;20044;-75
2023/04/09 05:27:03;;;;;;;14.50;8.88;;;31.00;99.90;;;;;;5042867;28;20545;-76
2023/04/09 05:29:30;;;;;;;11.52;8.35;;;31.10;99.90;;;;;;5040967;28;20386;-77
2023/04/09 05:31:56;;;;;;;12.00;8.57;;;31.20;99.90;;;;;;5042060;28;20063;-77
2023/04/09 05:34:23;;;;;;;10.05;8.82;;;31.10;99.90;;;;;;5042723;28;20021;-76
2023/04/09 05:36:49;;;;;;;8.80;7.90;;;31.10;99.90;;;;;;5041356;28;20025;-77
2023/04/09 05:39:16;;;;;;;12.43;7.78;;;31.10;99.90;;;;;;5040484;28;20033;-74
2023/04/09 05:41:43;;;;;;;11.00;7.93;;;31.20;99.90;;;;;;5047565;28;20032;-72
2023/04/09 05:44:11;;;;;;;9.45;8.25;;;31.20;99.90;;;;;;5055379;28;20479;-75
2023/04/09 05:46:38;;;;;;;9.93;8.05;;;31.20;99.90;;;;;;5052066;28;20462;-72
2023/04/09 05:49:05;;;;;;;12.70;8.40;;;31.20;99.90;;;;;;5050243;28;20024;-74
2023/04/09 05:51:31;;;;;;;12.98;8.80;;;31.10;99.90;;;;;;5045486;28;20021;-75
2023/04/09 05:53:59;;;;;;;10.13;8.35;;;31.20;99.90;;;;;;5046614;28;20021;-76
2023/04/09 05:56:26;;;;;;;9.45;8.20;;;31.10;99.90;;;;;;5043939;28;20427;-77
2023/04/09 05:58:53;;;;;;;9.30;7.57;;;31.10;99.90;;;;;;5045217;28;20025;-76
2023/04/09 06:01:20;;;;;;;9.38;7.30;;;31.10;99.90;;;;;;5046689;28;20462;-75
2023/04/09 06:03:47;;;;;;;8.88;7.50;;;31.20;99.90;;;;;;5044981;28;20041;-75
2023/04/09 06:06:13;;;;;;;12.65;8.38;;;31.20;99.90;;;;;;5045105;28;20060;-75
2023/04/09 06:08:40;;;;;;;12.45;8.63;;;31.10;99.90;;;;;;5046110;28;20013;-73
2023/04/09 06:11:09;;;;;;;9.57;8.45;;;31.20;99.90;;;;;;5044937;28;20033;-74
2023/04/09 06:13:36;;;;;;;12.05;9.70;;;31.20;99.90;;;;;;5044455;28;20116;-75
2023/04/09 06:16:05;;;;;;;11.88;9.55;;;31.20;99.90;;;;;;5046161;28;20021;-76
2023/04/09 06:18:32;;;;;;;13.30;9.35;;;31.20;99.90;;;;;;5048919;28;20020;-74
2023/04/09 06:21:02;;;;;;;13.82;10.43;;;31.30;99.90;;;;;;5046687;28;20024;-75
2023/04/09 06:23:29;;;;;;;13.70;10.52;;;31.30;99.90;;;;;;5043588;28;20022;-75
2023/04/09 06:25:55;;;;;;;13.30;10.75;;;31.20;99.90;;;;;;5046419;28;20040;-75
2023/04/09 06:28:22;;;;;;;14.77;10.25;;;31.30;99.90;;;;;;5044668;28;20306;-81
2023/04/09 06:30:49;;;;;;;15.20;10.30;;;31.20;99.90;;;;;;5044622;28;20013;-75
2023/04/09 06:33:15;;;;;;;16.10;10.43;;;31.30;99.90;;;;;;5046062;28;20017;-75
2023/04/09 06:35:42;;;;;;;15.68;10.90;;;31.40;99.90;;;;;;5044485;28;20022;-74
2023/04/09 06:38:09;;;;;;;10.82;9.30;;;31.40;99.90;;;;;;5053206;28;20074;-74
2023/04/09 06:40:39;;;;;;;11.63;9.27;;;31.50;99.90;;;;;;5051165;28;20354;-73
2023/04/09 06:43:08;;;;;;;10.00;8.95;;;31.60;99.90;;;;;;5048427;28;20021;-76
2023/04/09 06:45:36;;;;;;;13.95;9.57;;;31.60;99.90;;;;;;5048971;28;20024;-79
2023/04/09 06:48:03;;;;;;;11.45;10.10;;;31.80;99.90;;;;;;5055528;28;20021;-76
2023/04/09 06:50:30;;;;;;;11.65;9.77;;;31.80;99.90;;;;;;5052955;28;20036;-73
2023/04/09 06:52:56;;;;;;;12.43;9.45;;;31.80;99.90;;;;;;5044989;28;20092;-75
2023/04/09 06:55:23;;;;;;;11.60;9.98;;;31.80;99.90;;;;;;5054465;28;20389;-74
2023/04/09 06:57:50;;;;;;;18.02;10.18;;;31.90;99.90;;;;;;5049892;28;20056;-79
2023/04/09 07:00:16;;;;;;;14.90;10.45;;;31.90;99.90;;;;;;5053776;28;20028;-77
2023/04/09 07:02:43;;;;;;;12.50;9.35;;;32.10;99.90;;;;;;5055150;28;20486;-76
2023/04/09 07:05:10;;;;;;;30.20;27.45;;;32.00;99.90;;;;;;5054705;28;20477;-75
2023/04/09 07:07:36;;;;;;;10.30;9.20;;;32.00;99.90;;;;;;5054407;28;20569;-76
2023/04/09 07:10:03;;;;;;;14.20;9.95;;;32.00;99.90;;;;;;5053768;28;20045;-74
2023/04/09 07:12:31;;;;;;;11.88;9.63;;;32.10;99.90;;;;;;5053612;28;20068;-73
2023/04/09 07:14:59;;;;;;;9.38;8.38;;;32.10;99.90;;;;;;5064800;28;20485;-72
2023/04/09 07:17:25;;;;;;;12.27;9.13;;;32.10;99.90;;;;;;5069141;28;20040;-74
2023/04/09 07:19:53;;;;;;;13.30;9.35;;;32.20;99.90;;;;;;5053743;28;20036;-75
2023/04/09 07:22:23;;;;;;;11.32;9.65;;;32.20;99.90;;;;;;5067596;28;20037;-75
2023/04/09 07:24:52;;;;;;;10.95;9.40;;;32.30;99.90;;;;;;5058670;28;20079;-74
2023/04/09 07:27:21;;;;;;;10.02;9.02;;;32.20;99.90;;;;;;5055034;28;20043;-75
2023/04/09 07:29:47;;;;;;;9.85;8.85;;;32.20;99.90;;;;;;5055071;28;20101;-76
2023/04/09 07:32:15;;;;;;;13.65;10.25;;;32.20;99.90;;;;;;5054917;28;20017;-76
2023/04/09 07:34:42;;;;;;;12.05;10.38;;;32.10;99.90;;;;;;5054907;28;20049;-75
2023/04/09 07:37:09;;;;;;;12.95;9.77;;;32.10;99.90;;;;;;5054783;28;20089;-76
2023/04/09 07:39:36;;;;;;;13.63;10.32;;;32.00;99.90;;;;;;5060227;28;20025;-75
2023/04/09 07:42:04;;;;;;;13.63;11.00;;;32.00;99.90;;;;;;5074560;28;20020;-75
2023/04/09 07:44:35;;;;;;;13.45;10.65;;;31.90;99.90;;;;;;5074411;28;20043;-75
2023/04/09 07:47:05;;;;;;;12.10;10.90;;;32.10;99.90;;;;;;5074594;28;20039;-75
2023/04/09 07:49:32;;;;;;;15.35;10.75;;;32.10;99.90;;;;;;5064061;28;20033;-75
2023/04/09 07:51:59;;;;;;;12.27;9.75;;;32.00;99.90;;;;;;5054516;28;20540;-76
2023/04/09 07:54:27;;;;;;;12.18;9.55;;;32.20;99.90;;;;;;5054470;28;20025;-75
2023/04/09 07:56:53;;;;;;;11.70;10.18;;;32.20;99.90;;;;;;5054247;28;20517;-72
2023/04/09 07:59:20;;;;;;;12.52;11.07;;;32.20;99.90;;;;;;5054303;28;20025;-75
2023/04/09 08:01:46;;;;;;;11.77;10.52;;;32.40;99.90;;;;;;5054365;28;20428;-74
2023/04/09 08:04:13;;;;;;;12.20;10.30;;;32.40;99.90;;;;;;5052548;28;20065;-73
2023/04/09 08:06:40;;;;;;;13.02;11.05;;;32.40;99.90;;;;;;5054398;28;20608;-77
2023/04/09 08:09:06;;;;;;;11.65;9.40;;;32.40;99.90;;;;;;5054056;28;20060;-77
2023/04/09 08:11:33;;;;;;;12.63;10.00;;;32.50;99.90;;;;;;5054340;28;20096;-75
2023/04/09 08:14:03;;;;;;;11.50;10.20;;;32.40;99.90;;;;;;5054018;28;20037;-75
2023/04/09 08:16:29;;;;;;;10.60;9.48;;;32.40;99.90;;;;;;5054113;28;20043;-76
2023/04/09 08:18:56;;;;;;;15.88;11.23;;;32.40;99.90;;;;;;5053893;28;20021;-72
2023/04/09 08:21:23;;;;;;;13.65;11.10;;;32.60;99.90;;;;;;5053998;28;20035;-75
2023/04/09 08:23:50;;;;;;;24.05;19.20;;;32.60;99.90;;;;;;5053499;28;20029;-74
2023/04/09 08:26:16;;;;;;;39.28;32.40;;;32.40;99.90;;;;;;5053927;28;20024;-75
2023/04/09 08:28:43;;;;;;;14.32;12.77;;;32.40;99.90;;;;;;5053647;28;20028;-77
2023/04/09 08:31:09;;;;;;;16.95;12.48;;;32.30;99.90;;;;;;5053819;28;20067;-73
2023/04/09 08:33:36;;;;;;;13.77;11.40;;;32.40;99.90;;;;;;5053794;28;20025;-76
2023/04/09 08:36:07;;;;;;;12.23;10.88;;;32.30;99.90;;;;;;5053466;28;20104;-76
2023/04/09 08:38:33;;;;;;;14.30;12.35;;;32.40;99.90;;;;;;5053516;28;20033;-74
2023/04/09 08:41:00;;;;;;;14.23;11.10;;;32.40;99.90;;;;;;5052396;28;20570;-75
2023/04/09 08:43:27;;;;;;;17.20;12.25;;;32.50;99.90;;;;;;5053455;28;20104;-77
2023/04/09 08:45:56;;;;;;;16.23;11.98;;;32.60;99.90;;;;;;5053673;28;20100;-76
2023/04/09 08:48:24;;;;;;;16.55;11.40;;;32.60;99.90;;;;;;5053629;28;20025;-68
2023/04/09 08:50:51;;;;;;;12.43;10.60;;;32.60;99.90;;;;;;5053379;28;20117;-79
2023/04/09 08:53:18;;;;;;;17.00;10.60;;;32.50;99.90;;;;;;5053467;28;20017;-80
2023/04/09 08:55:46;;;;;;;16.15;11.07;;;32.50;99.90;;;;;;5053433;28;20385;-80
2023/04/09 08:58:12;;;;;;;13.70;11.18;;;32.50;99.90;;;;;;5053428;28;20013;-78
2023/04/09 09:00:39;;;;;;;12.95;10.20;;;32.50;99.90;;;;;;5053406;28;20407;-79
2023/04/09 09:03:07;;;;;;;12.80;10.25;;;32.50;99.90;;;;;;5053138;28;20044;-80
2023/04/09 09:05:47;;;;;;;14.68;10.98;;;32.60;99.90;;;;;;5053176;28;20025;-79
2023/04/09 09:08:23;;;;;;;17.05;11.57;;;32.50;99.90;;;;;;5053223;28;20164;-78
2023/04/09 09:10:49;;;;;;;20.05;15.07;;;32.50;99.90;;;;;;5053512;28;20055;-76
2023/04/09 09:13:26;;;;;;;24.70;17.50;;;32.50;99.90;;;;;;5051622;28;20499;-71
2023/04/09 09:16:11;;;;;;;27.85;23.45;;;32.50;99.90;;;;;;5046568;28;20474;-72
2023/04/09 09:18:42;;;;;;;29.90;18.70;;;32.50;99.90;;;;;;5043357;28;20029;-77
2023/04/09 09:21:10;;;;;;;17.60;14.70;;;32.50;99.90;;;;;;5047162;28;20028;-76
2023/04/09 09:23:37;;;;;;;22.25;14.10;;;32.40;99.90;;;;;;5041000;28;20060;-75
2023/04/09 09:26:21;;;;;;;103.72;73.05;;;32.50;99.90;;;;;;5046843;28;20020;-75
2023/04/09 09:28:49;;;;;;;193.93;135.07;;;32.50;99.90;;;;;;5047333;28;20021;-73
2023/04/09 09:31:17;;;;;;;183.13;123.63;;;32.50;99.90;;;;;;5047306;28;20029;-71
2023/04/09 09:33:44;;;;;;;42.42;28.95;;;32.40;99.90;;;;;;5048654;28;20027;-73
2023/04/09 09:36:10;;;;;;;30.15;18.60;;;32.60;99.90;;;;;;5038012;28;20036;-73
2023/04/09 09:39:00;;;;;;;26.08;17.13;;;32.50;99.90;;;;;;5044570;28;20028;-73
2023/04/09 09:41:29;;;;;;;37.17;24.05;;;32.40;99.90;;;;;;5045706;28;20021;-73
2023/04/09 09:43:58;;;;;;;40.83;28.98;;;32.40;99.90;;;;;;5044275;28;20497;-72
2023/04/09 09:46:34;;;;;;;34.22;21.50;;;32.40;99.90;;;;;;5053393;28;20037;-74
2023/04/09 09:49:02;;;;;;;24.83;17.63;;;32.50;99.90;;;;;;5053488;28;20033;-73
2023/04/09 09:51:34;;;;;;;26.13;19.88;;;32.50;99.90;;;;;;5053845;28;20078;-73
2023/04/09 09:54:04;;;;;;;32.95;21.60;;;32.60;99.90;;;;;;5051333;28;20405;-78
2023/04/09 09:56:34;;;;;;;32.60;20.20;;;32.60;99.90;;;;;;5050713;28;20055;-76
2023/04/09 09:59:21;;;;;;;25.00;17.73;;;32.50;99.90;;;;;;5050900;28;20021;-68
2023/04/09 10:02:12;;;;;;;32.15;20.70;;;32.40;99.90;;;;;;5051506;28;20066;-68
2023/04/09 10:04:40;;;;;;;42.00;30.30;;;32.50;99.90;;;;;;5051485;28;20037;-69
2023/04/09 10:07:07;;;;;;;29.08;21.30;;;32.40;99.90;;;;;;5051829;28;20021;-70
2023/04/09 10:09:36;;;;;;;22.90;16.67;;;32.30;99.90;;;;;;5051453;28;20024;-71
2023/04/09 10:12:05;;;;;;;26.42;17.70;;;32.40;99.90;;;;;;5052706;28;20021;-71
2023/04/09 10:14:34;;;;;;;31.35;24.80;;;32.40;99.90;;;;;;5052587;28;20053;-72
2023/04/09 10:17:02;;;;;;;52.92;39.85;;;32.40;99.90;;;;;;5052372;28;20032;-73
2023/04/09 10:19:35;;;;;;;173.88;125.63;;;32.40;99.90;;;;;;5052619;28;20074;-73
2023/04/09 10:22:12;;;;;;;68.55;51.05;;;32.40;99.90;;;;;;5052178;28;20025;-78
2023/04/09 10:24:40;;;;;;;88.63;66.93;;;32.30;99.90;;;;;;5059968;28;20033;-68
2023/04/09 10:27:11;;;;;;;30.45;21.35;;;32.30;99.90;;;;;;5046887;28;20032;-75
2023/04/09 10:29:44;;;;;;;169.33;86.90;;;32.20;99.90;;;;;;5058584;28;20378;-74
2023/04/09 10:32:11;;;;;;;103.72;69.22;;;32.20;99.90;;;;;;5067720;28;20021;-72
2023/04/09 10:34:40;;;;;;;76.65;57.30;;;32.10;99.90;;;;;;5048584;28;20021;-70
2023/04/09 10:37:09;;;;;;;97.40;71.25;;;32.10;99.90;;;;;;5047169;28;20037;-70
2023/04/09 10:39:42;;;;;;;167.30;113.72;;;32.00;99.90;;;;;;5049091;28;20014;-72
2023/04/09 10:42:15;;;;;;;32.50;23.63;;;31.90;99.90;;;;;;5044645;28;20041;-74
2023/04/09 10:44:42;;;;;;;28.83;20.40;;;31.70;99.90;;;;;;5044988;28;20027;-68
2023/04/09 10:47:09;;;;;;;32.40;20.38;;;31.60;99.90;;;;;;5045357;28;20105;-71
2023/04/09 10:49:38;;;;;;;37.55;22.45;;;31.70;99.90;;;;;;5045169;28;20029;-70
2023/04/09 10:52:10;;;;;;;30.00;19.98;;;31.60;99.90;;;;;;5045533;28;20018;-68
2023/04/09 10:54:45;;;;;;;34.10;20.88;;;31.70;99.90;;;;;;5044367;28;20022;-73
2023/04/09 10:57:14;;;;;;;30.23;20.65;;;31.60;99.90;;;;;;5044522;28;20025;-71
2023/04/09 11:00:01;;;;;;;34.45;20.77;;;31.60;99.90;;;;;;5046912;28;20032;-71
2023/04/09 11:02:39;;;;;;;33.22;21.50;;;31.60;99.90;;;;;;5048727;28;20044;-71
2023/04/09 11:05:26;;;;;;;39.38;25.85;;;31.60;99.90;;;;;;5046506;28;20401;-74
2023/04/09 11:08:05;;;;;;;60.67;40.45;;;31.60;99.90;;;;;;5040710;28;20205;-74
2023/04/09 11:10:32;;;;;;;48.47;33.92;;;31.60;99.90;;;;;;5049167;28;20024;-72
2023/04/09 11:12:59;;;;;;;103.60;74.70;;;31.60;99.90;;;;;;5055600;28;20025;-72
2023/04/09 11:15:26;;;;;;;82.28;57.00;;;31.50;99.90;;;;;;5055338;28;20028;-73
2023/04/09 11:17:52;;;;;;;129.50;88.88;;;31.50;99.90;;;;;;5055185;28;20036;-74
2023/04/09 11:20:22;;;;;;;132.63;90.05;;;31.50;99.90;;;;;;5055328;28;20021;-73
2023/04/09 11:22:54;;;;;;;114.50;84.15;;;31.50;99.90;;;;;;5055241;28;20405;-72
2023/04/09 11:25:25;;;;;;;71.95;51.08;;;31.60;99.90;;;;;;5055107;28;20132;-73
2023/04/09 11:27:52;;;;;;;31.60;22.63;;;31.50;99.90;;;;;;5051981;28;20079;-72
2023/04/09 11:30:19;;;;;;;32.05;21.58;;;31.50;99.90;;;;;;5043946;28;20072;-69
2023/04/09 11:32:47;;;;;;;30.35;19.80;;;31.40;99.90;;;;;;5035107;28;20030;-72
2023/04/09 11:35:14;;;;;;;28.23;20.00;;;31.40;99.90;;;;;;5042894;28;20064;-69
2023/04/09 11:37:43;;;;;;;149.23;118.63;;;31.30;99.90;;;;;;5045937;28;20036;-69
2023/04/09 11:40:29;;;;;;;236.80;150.52;;;31.30;99.90;;;;;;5043601;28;20037;-70
2023/04/09 11:42:56;;;;;;;47.63;32.22;;;31.30;99.90;;;;;;5037887;28;20381;-70
2023/04/09 11:45:28;;;;;;;62.75;40.42;;;31.30;99.90;;;;;;5048530;28;20385;-68
2023/04/09 11:47:55;;;;;;;;;;;31.30;99.90;;;;;;5040825;28;20021;-68
2023/04/09 11:50:22;;;;;;;32.85;22.58;;;31.20;99.90;;;;;;5048297;28;19905;-69
2023/04/09 11:52:49;;;;;;;36.15;22.92;;;31.20;99.90;;;;;;5045135;28;20078;-69
2023/04/09 11:55:26;;;;;;;43.55;30.00;;;31.20;99.90;;;;;;5046503;28;20429;-67
2023/04/09 11:57:59;;;;;;;55.97;36.03;;;31.00;99.90;;;;;;5043181;28;20091;-69
2023/04/09 12:00:26;;;;;;;40.72;27.33;;;31.10;99.90;;;;;;5040814;28;20028;-69
2023/04/09 12:03:02;;;;;;;42.20;29.00;;;31.10;99.90;;;;;;5041222;28;20050;-68
2023/04/09 12:05:31;;;;;;;42.70;28.90;;;31.10;99.90;;;;;;5041083;28;20029;-69
2023/04/09 12:08:00;;;;;;;48.22;30.83;;;31.10;99.90;;;;;;5042586;28;20175;-69
2023/04/09 12:10:30;;;;;;;37.03;26.92;;;31.00;99.90;;;;;;5043742;28;20036;-67
2023/04/09 12:13:05;;;;;;;42.85;24.65;;;31.00;99.90;;;;;;5042957;28;20025;-68
2023/04/09 12:15:34;;;;;;;35.65;21.85;;;30.90;99.90;;;;;;5043044;28;20016;-67
2023/04/09 12:18:01;;;;;;;44.08;22.50;;;30.90;99.90;;;;;;5043210;28;20021;-68
2023/04/09 12:20:48;;;;;;;26.15;18.35;;;30.90;99.90;;;;;;5044120;28;20024;-68
2023/04/09 12:23:15;;;;;;;30.55;18.98;;;30.90;99.90;;;;;;5045469;28;20060;-68
2023/04/09 12:25:44;;;;;;;30.35;17.13;;;30.80;99.90;;;;;;5045281;28;20104;-68
2023/04/09 12:28:15;;;;;;;26.83;18.13;;;30.80;99.90;;;;;;5057049;28;20079;-68
2023/04/09 12:30:42;;;;;;;30.25;18.10;;;30.90;99.90;;;;;;5043942;28;20048;-68
2023/04/09 12:33:09;;;;;;;27.40;18.55;;;30.90;99.90;;;;;;5042153;28;20034;-70
2023/04/09 12:35:36;;;;;;;38.40;21.17;;;30.80;99.90;;;;;;5044373;28;20025;-69
2023/04/09 12:38:04;;;;;;;29.17;20.05;;;30.80;99.90;;;;;;5038365;28;20029;-67
2023/04/09 12:40:31;;;;;;;29.55;20.15;;;30.80;99.90;;;;;;5033488;28;20017;-67